createdAt,value
2024-03-09T00:00:45.271Z,34.43
2024-03-09T00:03:13.886Z,35.73
2024-03-09T00:05:41.512Z,36.37
2024-03-09T00:08:10.080Z,34.17
2024-03-09T00:10:37.183Z,32.73
2024-03-09T00:13:04.212Z,33.67
2024-03-09T00:15:31.548Z,38.77
2024-03-09T00:17:59.298Z,33.30
2024-03-09T00:20:36.354Z,36.30
2024-03-09T00:23:07.475Z,34.17
2024-03-09T00:25:35.467Z,35.47
2024-03-09T00:28:02.471Z,38.50
2024-03-09T00:30:33.030Z,34.73
2024-03-09T00:33:01.690Z,36.80
2024-03-09T00:35:30.750Z,34.70
2024-03-09T00:37:59.382Z,38.13
2024-03-09T00:40:30.073Z,35.83
2024-03-09T00:43:08.240Z,38.93
2024-03-09T00:45:35.821Z,38.23
2024-03-09T00:48:05.020Z,35.63
2024-03-09T00:50:32.444Z,35.27
2024-03-09T00:52:59.388Z,36.90
2024-03-09T00:55:26.855Z,35.57
2024-03-09T00:57:54.984Z,35.70
2024-03-09T01:00:24.709Z,35.83
2024-03-09T01:02:52.196Z,38.40
2024-03-09T01:05:28.518Z,36.80
2024-03-09T01:07:55.929Z,35.80
2024-03-09T01:10:22.831Z,38.60
2024-03-09T01:12:50.193Z,41.50
2024-03-09T01:15:17.699Z,37.30
2024-03-09T01:17:44.801Z,36.20
2024-03-09T01:20:12.261Z,41.80
2024-03-09T01:22:44.598Z,37.07
2024-03-09T01:25:12.274Z,40.10
2024-03-09T01:27:39.954Z,34.03
2024-03-09T01:30:07.668Z,34.53
2024-03-09T01:32:34.717Z,37.63
2024-03-09T01:35:03.140Z,36.83
2024-03-09T01:37:30.332Z,38.87
2024-03-09T01:39:57.811Z,38.27
2024-03-09T01:42:24.693Z,37.70
2024-03-09T01:44:52.364Z,37.50
2024-03-09T01:47:23.082Z,39.60
2024-03-09T01:49:52.356Z,40.40
2024-03-09T01:52:22.254Z,40.90
2024-03-09T01:54:49.961Z,39.10
2024-03-09T01:57:17.100Z,40.90
2024-03-09T01:59:49.606Z,38.03
2024-03-09T02:02:17.343Z,40.13
2024-03-09T02:04:45.926Z,42.43
2024-03-09T02:07:17.343Z,39.30
2024-03-09T02:09:45.574Z,35.83
2024-03-09T02:12:13.949Z,38.07
2024-03-09T02:14:42.410Z,40.67
2024-03-09T02:17:10.445Z,38.63
2024-03-09T02:19:39.849Z,36.33
2024-03-09T02:22:11.591Z,41.47
2024-03-09T02:24:42.113Z,39.23
2024-03-09T02:27:10.045Z,37.67
2024-03-09T02:29:37.204Z,41.10
2024-03-09T02:32:05.440Z,42.73
2024-03-09T02:34:33.186Z,40.60
2024-03-09T02:37:00.177Z,38.60
2024-03-09T02:39:29.481Z,37.53
2024-03-09T02:41:59.263Z,39.70
2024-03-09T02:44:28.451Z,39.90
2024-03-09T02:46:55.659Z,38.23
2024-03-09T02:49:22.939Z,41.53
2024-03-09T02:51:49.876Z,39.10
2024-03-09T02:54:17.000Z,42.40
2024-03-09T02:56:44.059Z,39.00
2024-03-09T02:59:11.192Z,39.93
2024-03-09T03:01:38.542Z,41.20
2024-03-09T03:04:05.742Z,41.13
2024-03-09T03:06:33.716Z,41.87
2024-03-09T03:09:06.992Z,41.90
2024-03-09T03:11:33.990Z,40.07
2024-03-09T03:14:02.886Z,43.30
2024-03-09T03:16:30.741Z,43.83
2024-03-09T03:18:58.600Z,43.53
2024-03-09T03:21:26.206Z,42.03
2024-03-09T03:23:54.300Z,41.93
2024-03-09T03:26:22.805Z,41.30
2024-03-09T03:28:51.307Z,39.87
2024-03-09T03:31:20.521Z,42.13
2024-03-09T03:33:48.814Z,42.90
2024-03-09T03:36:19.434Z,46.67
2024-03-09T03:38:47.989Z,42.20
2024-03-09T03:41:16.197Z,39.40
2024-03-09T03:43:44.226Z,43.07
2024-03-09T03:46:13.322Z,44.50
2024-03-09T03:48:41.443Z,42.30
2024-03-09T03:51:13.755Z,42.60
2024-03-09T03:53:41.820Z,42.17
2024-03-09T03:56:08.809Z,39.60
2024-03-09T03:58:36.507Z,43.70
2024-03-09T04:01:03.642Z,42.77
2024-03-09T04:03:33.122Z,38.73
2024-03-09T04:06:03.786Z,44.47
2024-03-09T04:08:30.837Z,46.13
2024-03-09T04:10:57.954Z,45.53
2024-03-09T04:13:26.071Z,48.43
2024-03-09T04:15:54.117Z,42.20
2024-03-09T04:18:23.045Z,42.13
2024-03-09T04:20:50.338Z,39.83
2024-03-09T04:23:17.904Z,39.20
2024-03-09T04:25:46.222Z,43.30
2024-03-09T04:28:17.170Z,45.13
2024-03-09T04:30:44.770Z,43.83
2024-03-09T04:33:12.650Z,40.10
2024-03-09T04:35:43.183Z,44.60
2024-03-09T04:38:11.615Z,41.40
2024-03-09T04:40:39.156Z,41.30
2024-03-09T04:43:06.477Z,42.20
2024-03-09T04:45:34.353Z,41.47
2024-03-09T04:48:02.284Z,47.20
2024-03-09T04:50:29.539Z,39.70
2024-03-09T04:52:57.281Z,41.30
2024-03-09T04:55:29.081Z,43.10
2024-03-09T04:57:56.430Z,41.20
2024-03-09T05:00:25.920Z,41.63
2024-03-09T05:02:53.690Z,38.90
2024-03-09T05:05:20.902Z,41.43
2024-03-09T05:07:52.128Z,43.70
2024-03-09T05:10:20.165Z,40.87
2024-03-09T05:12:57.419Z,41.37
2024-03-09T05:15:25.802Z,43.00
2024-03-09T05:17:56.439Z,42.00
2024-03-09T05:20:30.508Z,40.40
2024-03-09T05:23:01.270Z,40.47
2024-03-09T05:25:28.421Z,39.40
2024-03-09T05:27:55.838Z,39.97
2024-03-09T05:30:28.921Z,40.93
2024-03-09T05:32:59.290Z,42.23
2024-03-09T05:35:29.546Z,42.07
2024-03-09T05:38:00.369Z,39.27
2024-03-09T05:40:31.174Z,42.10
2024-03-09T05:43:02.432Z,39.57
2024-03-09T05:45:29.489Z,39.03
2024-03-09T05:47:58.048Z,42.80
2024-03-09T05:50:29.951Z,41.90
2024-03-09T05:52:58.768Z,44.20
2024-03-09T05:55:26.377Z,36.97
2024-03-09T05:57:56.562Z,45.90
2024-03-09T06:00:29.045Z,37.03
2024-03-09T06:02:57.981Z,41.30
2024-03-09T06:05:34.984Z,35.90
2024-03-09T06:08:03.617Z,39.60
2024-03-09T06:10:31.331Z,40.03
2024-03-09T06:12:58.262Z,43.60
2024-03-09T06:15:26.205Z,39.93
2024-03-09T06:17:59.930Z,41.47
2024-03-09T06:20:28.097Z,41.73
2024-03-09T06:22:56.157Z,38.97
2024-03-09T06:25:31.278Z,40.50
2024-03-09T06:28:03.814Z,37.30
2024-03-09T06:30:32.509Z,35.83
2024-03-09T06:33:02.231Z,37.57
2024-03-09T06:35:30.608Z,39.03
2024-03-09T06:38:02.189Z,44.57
2024-03-09T06:40:32.205Z,39.93
2024-03-09T06:43:00.164Z,41.77
2024-03-09T06:45:27.991Z,36.77
2024-03-09T06:47:55.564Z,38.43
2024-03-09T06:50:22.888Z,40.73
2024-03-09T06:52:49.869Z,38.13
2024-03-09T06:55:16.762Z,38.83
2024-03-09T06:57:46.307Z,37.43
2024-03-09T07:00:16.565Z,36.33
2024-03-09T07:02:44.062Z,34.43
2024-03-09T07:05:11.698Z,41.50
2024-03-09T07:07:39.715Z,36.43
2024-03-09T07:10:13.331Z,36.73
2024-03-09T07:12:42.198Z,37.60
2024-03-09T07:15:16.456Z,33.53
2024-03-09T07:17:49.765Z,35.20
2024-03-09T07:20:18.766Z,36.43
2024-03-09T07:22:52.505Z,34.60
2024-03-09T07:25:27.053Z,35.47
2024-03-09T07:27:56.722Z,30.90
2024-03-09T07:30:25.355Z,37.60
2024-03-09T07:32:55.277Z,37.30
2024-03-09T07:35:28.906Z,34.00
2024-03-09T07:38:03.149Z,35.57
2024-03-09T07:40:35.648Z,38.50
2024-03-09T07:43:03.194Z,37.47
2024-03-09T07:45:31.356Z,35.53
2024-03-09T07:48:00.798Z,35.17
2024-03-09T07:50:29.056Z,36.67
2024-03-09T07:52:57.829Z,37.83
2024-03-09T07:55:27.324Z,34.63
2024-03-09T07:58:10.057Z,36.10
2024-03-09T08:00:45.953Z,37.90
2024-03-09T08:03:14.205Z,33.07
2024-03-09T08:05:41.549Z,35.10
2024-03-09T08:08:13.516Z,33.00
2024-03-09T08:10:43.089Z,33.67
2024-03-09T08:13:14.219Z,34.50
2024-03-09T08:15:41.576Z,32.83
2024-03-09T08:18:11.547Z,30.73
2024-03-09T08:20:39.338Z,36.83
2024-03-09T08:23:07.696Z,34.40
2024-03-09T08:25:34.876Z,31.43
2024-03-09T08:28:01.955Z,35.70
2024-03-09T08:30:29.004Z,32.43
2024-03-09T08:32:59.588Z,32.73
2024-03-09T08:35:32.773Z,29.30
2024-03-09T08:37:59.967Z,33.83
2024-03-09T08:40:27.199Z,30.50
2024-03-09T08:42:54.480Z,32.97
2024-03-09T08:45:22.970Z,35.10
2024-03-09T08:47:53.780Z,30.70
2024-03-09T08:50:22.992Z,30.37
2024-03-09T08:52:50.552Z,37.23
2024-03-09T08:55:18.427Z,34.20
2024-03-09T08:57:50.710Z,32.60
2024-03-09T09:00:21.471Z,35.23
2024-03-09T09:02:49.295Z,30.93
2024-03-09T09:05:17.022Z,33.90
2024-03-09T09:07:48.650Z,33.73
2024-03-09T09:10:16.823Z,36.07
2024-03-09T09:12:46.012Z,32.03
2024-03-09T09:15:13.742Z,30.83
2024-03-09T09:17:44.110Z,33.20
2024-03-09T09:20:12.668Z,34.40
2024-03-09T09:22:44.953Z,30.93
2024-03-09T09:25:15.217Z,33.20
2024-03-09T09:27:44.721Z,33.73
2024-03-09T09:30:12.127Z,28.73
2024-03-09T09:32:42.104Z,28.07
2024-03-09T09:35:09.895Z,29.83
2024-03-09T09:37:36.993Z,29.37
2024-03-09T09:40:04.585Z,30.03
2024-03-09T09:42:32.805Z,29.00
2024-03-09T09:45:01.163Z,28.73
2024-03-09T09:47:30.023Z,30.73
2024-03-09T09:49:58.009Z,32.83
2024-03-09T09:52:26.029Z,32.53
2024-03-09T09:54:57.082Z,29.93
2024-03-09T09:57:26.467Z,28.70
2024-03-09T09:59:53.785Z,28.10
2024-03-09T10:02:23.924Z,30.60
2024-03-09T10:04:51.890Z,30.37
2024-03-09T10:07:19.082Z,27.83
2024-03-09T10:09:48.424Z,27.00
2024-03-09T10:12:23.153Z,27.50
2024-03-09T10:14:50.838Z,30.00
2024-03-09T10:17:21.822Z,27.13
2024-03-09T10:19:52.886Z,30.27
2024-03-09T10:22:20.274Z,28.53
2024-03-09T10:24:55.220Z,25.97
2024-03-09T10:27:27.763Z,25.70
2024-03-09T10:30:11.976Z,28.93
2024-03-09T10:32:42.554Z,25.63
2024-03-09T10:35:13.646Z,25.00
2024-03-09T10:37:42.116Z,28.10
2024-03-09T10:40:14.285Z,27.30
2024-03-09T10:42:47.088Z,27.33
2024-03-09T10:45:19.984Z,26.30
2024-03-09T10:47:55.733Z,23.47
2024-03-09T10:50:30.476Z,25.63
2024-03-09T10:53:02.817Z,29.73
2024-03-09T10:55:55.686Z,25.43
2024-03-09T10:58:27.319Z,24.57
2024-03-09T11:00:55.616Z,25.40
2024-03-09T11:03:25.294Z,25.63
2024-03-09T11:05:54.761Z,26.37
2024-03-09T11:08:23.725Z,22.87
2024-03-09T11:10:52.029Z,25.50
2024-03-09T11:13:20.096Z,26.97
2024-03-09T11:15:53.566Z,24.17
2024-03-09T11:18:24.003Z,24.70
2024-03-09T11:21:05.116Z,24.83
2024-03-09T11:23:34.381Z,22.27
2024-03-09T11:26:04.067Z,20.60
2024-03-09T11:28:43.252Z,25.17
2024-03-09T11:31:13.627Z,21.67
2024-03-09T11:33:53.213Z,22.40
2024-03-09T11:36:54.043Z,22.83
2024-03-09T11:39:32.802Z,25.20
2024-03-09T11:42:02.243Z,23.03
2024-03-09T11:44:32.225Z,26.23
2024-03-09T11:46:59.388Z,22.67
2024-03-09T11:49:30.608Z,21.40
2024-03-09T11:51:58.316Z,23.87
2024-03-09T11:54:27.519Z,22.30
2024-03-09T11:56:56.309Z,23.87
2024-03-09T11:59:24.402Z,22.93
2024-03-09T12:01:59.885Z,24.50
2024-03-09T12:04:28.144Z,25.13
2024-03-09T12:06:55.557Z,25.70
2024-03-09T12:09:22.884Z,23.80
2024-03-09T12:11:49.940Z,35.17
2024-03-09T12:14:17.980Z,25.00
2024-03-09T12:16:46.871Z,23.80
2024-03-09T12:19:15.555Z,24.10
2024-03-09T12:21:44.229Z,25.07
2024-03-09T12:24:13.752Z,25.63
2024-03-09T12:26:42.379Z,24.27
2024-03-09T12:29:13.441Z,21.07
2024-03-09T12:31:41.379Z,24.33
2024-03-09T12:34:11.591Z,24.07
2024-03-09T12:36:50.765Z,26.90
2024-03-09T12:39:18.935Z,22.20
2024-03-09T12:41:54.907Z,23.10
2024-03-09T12:44:23.599Z,26.60
2024-03-09T12:46:50.871Z,24.77
2024-03-09T12:49:19.437Z,25.07
2024-03-09T12:51:51.394Z,24.60
2024-03-09T12:54:19.490Z,25.43
2024-03-09T12:56:49.086Z,24.40
2024-03-09T12:59:23.310Z,24.77
2024-03-09T13:01:52.678Z,27.93
2024-03-09T13:04:25.605Z,30.80
2024-03-09T13:06:53.969Z,21.70
2024-03-09T13:09:20.934Z,25.10
2024-03-09T13:11:49.618Z,25.60
2024-03-09T13:14:22.791Z,25.00
2024-03-09T13:16:51.525Z,23.47
2024-03-09T13:19:19.041Z,22.17
2024-03-09T13:21:52.717Z,23.57
2024-03-09T13:24:22.892Z,25.27
2024-03-09T13:26:52.205Z,24.60
2024-03-09T13:29:21.939Z,24.90
2024-03-09T13:31:51.022Z,22.90
2024-03-09T13:34:18.290Z,23.60
2024-03-09T13:36:46.613Z,25.37
2024-03-09T13:39:17.254Z,21.60
2024-03-09T13:41:46.096Z,21.20
2024-03-09T13:44:13.751Z,21.10
2024-03-09T13:46:42.380Z,20.40
2024-03-09T13:49:16.036Z,17.20
2024-03-09T13:51:44.818Z,20.80
2024-03-09T13:54:12.456Z,24.20
2024-03-09T13:56:40.390Z,24.10
2024-03-09T13:59:14.864Z,21.67
2024-03-09T14:01:44.749Z,28.33
2024-03-09T14:04:12.460Z,23.77
2024-03-09T14:06:56.772Z,22.27
2024-03-09T14:09:31.634Z,23.20
2024-03-09T14:11:59.461Z,21.63
2024-03-09T14:14:26.901Z,22.07
2024-03-09T14:16:55.189Z,21.57
2024-03-09T14:19:22.239Z,21.10
2024-03-09T14:21:51.368Z,21.07
2024-03-09T14:24:19.412Z,22.53
2024-03-09T14:26:46.566Z,20.27
2024-03-09T14:29:16.351Z,18.30
2024-03-09T14:31:47.344Z,22.80
2024-03-09T14:34:14.365Z,19.93
2024-03-09T14:36:41.189Z,17.93
2024-03-09T14:39:17.416Z,18.40
2024-03-09T14:41:44.705Z,21.27
2024-03-09T14:44:11.627Z,22.40
2024-03-09T14:46:38.545Z,23.20
2024-03-09T14:49:09.492Z,19.43
2024-03-09T14:51:36.801Z,22.77
2024-03-09T14:54:04.251Z,21.60
2024-03-09T14:56:31.166Z,25.50
2024-03-09T14:58:58.615Z,24.70
2024-03-09T15:01:26.606Z,27.70
2024-03-09T15:03:55.297Z,29.63
2024-03-09T15:06:23.615Z,29.33
2024-03-09T15:08:56.672Z,27.23
2024-03-09T15:11:23.796Z,27.10
2024-03-09T15:13:55.462Z,29.90
2024-03-09T15:16:27.836Z,28.50
2024-03-09T15:18:55.238Z,30.13
2024-03-09T15:21:24.357Z,27.93
2024-03-09T15:23:59.632Z,32.00
2024-03-09T15:26:30.961Z,28.17
2024-03-09T15:28:59.471Z,29.43
2024-03-09T15:31:27.852Z,28.30
2024-03-09T15:33:56.392Z,31.07
2024-03-09T15:36:25.242Z,32.27
2024-03-09T15:38:53.093Z,31.93
2024-03-09T15:41:20.508Z,28.57
2024-03-09T15:43:49.624Z,32.23
2024-03-09T15:46:18.771Z,31.00
2024-03-09T15:48:46.749Z,30.93
2024-03-09T15:51:13.730Z,30.07
2024-03-09T15:53:41.929Z,28.77
2024-03-09T15:56:11.500Z,32.87
2024-03-09T15:58:41.655Z,33.07
2024-03-09T16:01:09.631Z,32.00
2024-03-09T16:03:37.824Z,33.10
2024-03-09T16:06:05.678Z,35.60
2024-03-09T16:08:34.559Z,32.17
2024-03-09T16:11:03.772Z,35.07
2024-03-09T16:13:33.778Z,46.10
2024-03-09T16:16:07.804Z,35.13
2024-03-09T16:18:35.248Z,33.30
2024-03-09T16:21:08.562Z,35.17
2024-03-09T16:23:45.197Z,34.40
2024-03-09T16:26:13.018Z,32.40
2024-03-09T16:28:40.068Z,39.37
2024-03-09T16:31:12.439Z,33.70
2024-03-09T16:33:39.754Z,35.00
2024-03-09T16:36:07.125Z,34.40
2024-03-09T16:38:34.250Z,37.37
2024-03-09T16:41:03.461Z,34.20
2024-03-09T16:43:34.992Z,34.40
2024-03-09T16:46:07.316Z,35.00
2024-03-09T16:48:36.754Z,36.50
2024-03-09T16:51:07.474Z,31.87
2024-03-09T16:53:34.908Z,34.63
2024-03-09T16:56:03.818Z,35.33
2024-03-09T16:58:31.305Z,32.10
2024-03-09T17:00:58.355Z,36.37
2024-03-09T17:03:25.343Z,36.00
2024-03-09T17:05:52.459Z,35.50
2024-03-09T17:08:22.280Z,34.80
2024-03-09T17:10:53.080Z,38.50
2024-03-09T17:13:23.759Z,36.90
2024-03-09T17:15:51.416Z,38.90
2024-03-09T17:18:22.343Z,38.90
2024-03-09T17:20:53.662Z,39.83
2024-03-09T17:23:21.658Z,38.30
2024-03-09T17:25:49.024Z,41.17
2024-03-09T17:28:21.108Z,47.07
2024-03-09T17:30:49.926Z,59.97
2024-03-09T17:33:17.468Z,52.57
2024-03-09T17:35:44.808Z,45.13
2024-03-09T17:38:12.252Z,66.20
2024-03-09T17:40:41.159Z,73.90
2024-03-09T17:43:11.136Z,93.73
2024-03-09T17:45:38.386Z,100.70
2024-03-09T17:48:09.022Z,67.60
2024-03-09T17:50:37.444Z,53.43
2024-03-09T17:53:06.747Z,76.63
2024-03-09T17:55:34.166Z,60.83
2024-03-09T17:58:08.945Z,47.03
2024-03-09T18:00:37.330Z,46.13
2024-03-09T18:03:05.014Z,40.97
2024-03-09T18:05:35.934Z,38.17
2024-03-09T18:08:09.409Z,39.37
2024-03-09T18:10:40.604Z,40.70
2024-03-09T18:13:11.992Z,43.37
2024-03-09T18:15:40.826Z,39.93
2024-03-09T18:18:14.711Z,39.40
2024-03-09T18:20:43.567Z,39.70
2024-03-09T18:23:11.872Z,40.07
2024-03-09T18:25:39.534Z,40.90
2024-03-09T18:28:09.785Z,42.80
2024-03-09T18:30:37.235Z,40.37
2024-03-09T18:33:10.048Z,39.17
2024-03-09T18:35:38.445Z,38.73
2024-03-09T18:38:05.803Z,43.87
2024-03-09T18:40:32.727Z,43.77
2024-03-09T18:43:00.048Z,43.50
2024-03-09T18:45:32.386Z,40.77
2024-03-09T18:47:59.481Z,41.43
2024-03-09T18:50:27.416Z,39.43
2024-03-09T18:52:59.102Z,38.47
2024-03-09T18:55:27.435Z,41.00
2024-03-09T18:57:54.818Z,40.17
2024-03-09T19:00:21.927Z,40.17
2024-03-09T19:02:51.580Z,40.30
2024-03-09T19:05:21.444Z,37.53
2024-03-09T19:07:52.633Z,38.83
2024-03-09T19:10:20.043Z,33.77
2024-03-09T19:12:47.697Z,41.03
2024-03-09T19:15:15.016Z,38.97
2024-03-09T19:17:46.602Z,39.73
2024-03-09T19:20:21.440Z,41.47
2024-03-09T19:22:49.186Z,39.77
2024-03-09T19:25:17.318Z,43.60
2024-03-09T19:27:47.330Z,41.50
2024-03-09T19:30:19.205Z,42.87
2024-03-09T19:32:47.738Z,40.80
2024-03-09T19:35:22.584Z,40.00
2024-03-09T19:37:50.725Z,38.33
2024-03-09T19:40:18.507Z,38.17
2024-03-09T19:42:50.202Z,38.87
2024-03-09T19:45:23.274Z,46.50
2024-03-09T19:47:54.875Z,41.43
2024-03-09T19:50:22.502Z,41.60
2024-03-09T19:52:50.562Z,42.50
2024-03-09T19:55:20.546Z,40.10
2024-03-09T19:57:48.523Z,39.60
2024-03-09T20:00:20.704Z,40.53
2024-03-09T20:02:57.008Z,35.13
2024-03-09T20:05:34.314Z,39.33
2024-03-09T20:08:03.206Z,37.90
2024-03-09T20:10:31.891Z,35.97
2024-03-09T20:12:58.873Z,34.80
2024-03-09T20:15:28.376Z,40.83
2024-03-09T20:17:56.548Z,38.03
2024-03-09T20:20:25.413Z,37.23
2024-03-09T20:22:53.588Z,37.73
2024-03-09T20:25:20.728Z,35.13
2024-03-09T20:27:47.734Z,37.97
2024-03-09T20:30:18.454Z,34.40
2024-03-09T20:32:46.394Z,40.40
2024-03-09T20:35:16.993Z,37.00
2024-03-09T20:37:46.319Z,37.33
2024-03-09T20:40:16.346Z,39.80
2024-03-09T20:42:47.057Z,37.80
2024-03-09T20:45:16.290Z,38.03
2024-03-09T20:47:43.804Z,36.50
2024-03-09T20:50:14.878Z,39.10
2024-03-09T20:52:42.592Z,39.13
2024-03-09T20:55:11.279Z,42.40
2024-03-09T20:57:41.358Z,37.50
2024-03-09T21:00:11.280Z,36.17
2024-03-09T21:02:40.663Z,39.63
2024-03-09T21:05:08.934Z,35.00
2024-03-09T21:07:36.030Z,38.67
2024-03-09T21:10:03.987Z,39.30
2024-03-09T21:12:31.249Z,36.40
2024-03-09T21:14:59.407Z,39.23
2024-03-09T21:17:27.163Z,35.70
2024-03-09T21:19:54.958Z,36.60
2024-03-09T21:22:22.266Z,40.93
2024-03-09T21:24:49.505Z,43.87
2024-03-09T21:27:16.377Z,40.90
2024-03-09T21:29:43.311Z,40.03
2024-03-09T21:32:11.824Z,38.43
2024-03-09T21:34:38.786Z,34.83
2024-03-09T21:37:05.959Z,37.97
2024-03-09T21:39:36.569Z,34.90
2024-03-09T21:42:06.864Z,39.67
2024-03-09T21:44:33.861Z,43.40
2024-03-09T21:47:00.993Z,36.60
2024-03-09T21:49:27.918Z,41.10
2024-03-09T21:51:54.974Z,38.90
2024-03-09T21:54:23.022Z,41.53
2024-03-09T21:56:50.024Z,41.40
2024-03-09T21:59:16.991Z,42.40
2024-03-09T22:01:44.717Z,42.20
2024-03-09T22:04:11.784Z,39.47
2024-03-09T22:06:38.694Z,37.67
2024-03-09T22:09:06.875Z,39.20
2024-03-09T22:11:34.207Z,38.13
2024-03-09T22:14:01.321Z,39.83
2024-03-09T22:16:28.212Z,37.70
2024-03-09T22:18:56.491Z,39.20
2024-03-09T22:21:23.465Z,42.20
2024-03-09T22:23:50.354Z,38.83
2024-03-09T22:26:17.492Z,42.30
2024-03-09T22:28:44.681Z,42.83
2024-03-09T22:31:11.694Z,48.77
2024-03-09T22:33:40.436Z,46.10
2024-03-09T22:36:07.715Z,46.50
2024-03-09T22:38:36.733Z,48.63
2024-03-09T22:41:03.978Z,56.00
2024-03-09T22:43:31.161Z,51.70
2024-03-09T22:45:58.579Z,46.73
2024-03-09T22:48:31.240Z,46.40
2024-03-09T22:50:59.236Z,49.47
2024-03-09T22:53:26.450Z,50.90
2024-03-09T22:55:54.071Z,53.83
2024-03-09T22:58:21.128Z,51.63
2024-03-09T23:01:07.038Z,50.87
2024-03-09T23:03:34.202Z,56.43
2024-03-09T23:06:01.260Z,53.23
2024-03-09T23:08:28.802Z,49.20
2024-03-09T23:10:56.065Z,50.30
2024-03-09T23:13:23.296Z,53.03
2024-03-09T23:15:50.164Z,55.20
2024-03-09T23:18:18.839Z,56.17
2024-03-09T23:20:46.499Z,53.73
2024-03-09T23:23:13.570Z,55.20
2024-03-09T23:25:40.484Z,53.60
2024-03-09T23:28:10.456Z,59.50
2024-03-09T23:30:37.534Z,51.80
2024-03-09T23:33:05.988Z,55.10
2024-03-09T23:35:33.183Z,58.17
2024-03-09T23:38:00.227Z,55.10
2024-03-09T23:40:27.174Z,53.20
2024-03-09T23:42:54.225Z,57.37
2024-03-09T23:45:21.237Z,51.73
2024-03-09T23:47:49.477Z,55.57
2024-03-09T23:50:21.464Z,63.20
2024-03-09T23:52:49.395Z,59.23
2024-03-09T23:55:16.893Z,55.40
2024-03-09T23:57:43.906Z,54.07
